Time;durP1;ratioP1;P1;durP2;ratioP2;P2;SDS_P1;SDS_P2;PMS_P1;PMS_P2;Temp;Humidity;BMP_temperature;BMP_pressure;BME280_temperature;BME280_humidity;BME280_pressure;Samples;Min_cycle;Max_cycle;Signal;HPM_P1;HPM_P2
2020/12/03 00:02:16;;;;;;;13.13;6.55;;;8.50;57.30;;;;;;6276100;28;20038;-73
2020/12/03 00:05:17;;;;;;;11.02;5.30;;;8.50;57.50;;;;;;6245299;28;20036;-72
2020/12/03 00:08:18;;;;;;;7.95;4.68;;;8.60;57.50;;;;;;6243861;28;20041;-72
2020/12/03 00:11:22;;;;;;;8.80;4.78;;;8.50;57.50;;;;;;6260295;28;20033;-72
2020/12/03 00:14:23;;;;;;;13.30;6.03;;;8.60;57.50;;;;;;6225473;28;20073;-72
2020/12/03 00:17:24;;;;;;;12.15;5.30;;;8.60;57.40;;;;;;6244428;28;20044;-72
2020/12/03 00:20:25;;;;;;;11.00;5.60;;;8.60;57.30;;;;;;6260420;28;20437;-72
2020/12/03 00:23:26;;;;;;;9.65;4.88;;;8.60;57.20;;;;;;6242564;28;20125;-72
2020/12/03 00:26:30;;;;;;;11.25;5.63;;;8.60;57.20;;;;;;6235285;28;20030;-72
2020/12/03 00:29:31;;;;;;;9.35;4.78;;;8.60;57.10;;;;;;6219956;28;20038;-72
2020/12/03 00:32:32;;;;;;;15.52;5.97;;;8.70;57.10;;;;;;6218410;28;22229;-72
2020/12/03 00:35:33;;;;;;;11.55;4.78;;;8.70;57.10;;;;;;6233583;28;20100;-72
2020/12/03 00:38:34;;;;;;;19.75;6.03;;;8.70;57.00;;;;;;6220457;28;20030;-72
2020/12/03 00:41:35;;;;;;;13.75;6.47;;;8.70;57.00;;;;;;6236577;28;20117;-71
2020/12/03 00:44:36;;;;;;;13.90;5.70;;;8.70;56.80;;;;;;6219368;28;20042;-72
2020/12/03 00:47:40;;;;;;;12.23;5.63;;;8.70;56.80;;;;;;6218196;28;20046;-72
2020/12/03 00:50:41;;;;;;;10.20;5.70;;;8.80;56.80;;;;;;6242853;28;20117;-72
2020/12/03 00:53:43;;;;;;;16.40;5.18;;;8.80;56.80;;;;;;6201274;28;20057;-73
2020/12/03 00:56:47;;;;;;;14.68;6.60;;;8.80;56.70;;;;;;6238441;28;20096;-73
2020/12/03 00:59:48;;;;;;;10.52;5.47;;;8.80;56.70;;;;;;6218903;28;20026;-72
2020/12/03 01:02:50;;;;;;;10.32;5.50;;;8.80;56.50;;;;;;6218133;28;20037;-73
2020/12/03 01:05:51;;;;;;;10.43;4.97;;;8.90;57.10;;;;;;6238035;28;20469;-73
2020/12/03 01:08:52;;;;;;;12.10;5.00;;;8.80;56.40;;;;;;6235182;28;20034;-73
2020/12/03 01:11:52;;;;;;;13.77;6.00;;;8.80;56.50;;;;;;6226167;28;20352;-73
2020/12/03 01:14:53;;;;;;;14.18;6.07;;;8.70;56.50;;;;;;6202258;28;20041;-71
2020/12/03 01:17:55;;;;;;;12.82;5.82;;;8.80;56.60;;;;;;6231082;28;20421;-71
2020/12/03 01:20:56;;;;;;;13.00;6.13;;;8.80;56.70;;;;;;6234600;28;20073;-72
2020/12/03 01:23:57;;;;;;;12.15;4.85;;;8.80;56.80;;;;;;6224219;28;20124;-72
2020/12/03 01:26:58;;;;;;;12.98;5.88;;;8.80;56.80;;;;;;6242974;28;20037;-72
2020/12/03 01:29:59;;;;;;;10.68;5.60;;;8.80;56.80;;;;;;6242426;28;20366;-72
2020/12/03 01:33:00;;;;;;;8.70;4.55;;;8.80;56.80;;;;;;6240834;28;20184;-73
2020/12/03 01:36:01;;;;;;;10.95;5.75;;;8.80;56.80;;;;;;6230975;28;20444;-73
2020/12/03 01:39:03;;;;;;;10.35;5.57;;;8.80;56.80;;;;;;6215214;28;20037;-72
2020/12/03 01:42:04;;;;;;;14.20;5.47;;;8.80;56.90;;;;;;6241782;28;20032;-72
2020/12/03 01:45:59;;;;;;;12.50;5.75;;;8.80;56.90;;;;;;6241780;28;20034;-72
2020/12/03 01:49:17;;;;;;;11.70;5.63;;;8.70;57.00;;;;;;6174378;28;20034;-73
2020/12/03 01:52:19;;;;;;;15.20;5.78;;;8.70;57.10;;;;;;6187384;28;20383;-72
2020/12/03 01:55:20;;;;;;;15.15;6.32;;;8.70;57.20;;;;;;6191526;28;20408;-72
2020/12/03 01:58:34;;;;;;;10.98;6.10;;;8.70;57.30;;;;;;6173618;28;20030;-72
2020/12/03 02:01:35;;;;;;;12.55;6.25;;;8.60;57.30;;;;;;6163108;28;20022;-72
2020/12/03 02:04:36;;;;;;;11.43;5.72;;;8.60;57.30;;;;;;6179747;28;20435;-72
2020/12/03 02:07:38;;;;;;;12.75;5.78;;;8.60;57.30;;;;;;6200098;28;20035;-72
2020/12/03 02:10:38;;;;;;;12.07;5.70;;;8.60;57.30;;;;;;6189700;28;20077;-72
2020/12/03 02:13:50;;;;;;;11.95;5.32;;;8.60;57.30;;;;;;6173619;28;20042;-73
2020/12/03 02:16:52;;;;;;;12.50;5.88;;;8.50;57.50;;;;;;6195471;28;20065;-74
2020/12/03 02:19:55;;;;;;;12.25;5.63;;;8.50;57.50;;;;;;6190008;28;20038;-72
2020/12/03 02:22:56;;;;;;;10.57;5.07;;;8.50;58.10;;;;;;6210960;28;20041;-73
2020/12/03 02:25:57;;;;;;;9.95;4.60;;;8.50;57.40;;;;;;6237441;28;20040;-74
2020/12/03 02:28:58;;;;;;;9.27;5.32;;;8.40;57.30;;;;;;6268800;28;20358;-71
2020/12/03 02:31:59;;;;;;;13.32;5.65;;;8.50;57.40;;;;;;6241805;28;20033;-73
2020/12/03 02:35:00;;;;;;;10.60;5.78;;;8.40;57.40;;;;;;6241915;28;20029;-72
2020/12/03 02:38:01;;;;;;;13.85;5.50;;;8.40;57.40;;;;;;6236649;28;20217;-72
2020/12/03 02:41:02;;;;;;;13.50;6.05;;;8.40;57.60;;;;;;6223372;28;20049;-72
2020/12/03 02:44:03;;;;;;;12.50;5.18;;;8.50;57.70;;;;;;6217067;28;20129;-72
2020/12/03 02:47:04;;;;;;;13.88;6.85;;;8.50;57.70;;;;;;6217005;28;20038;-72
2020/12/03 02:50:06;;;;;;;13.07;6.13;;;8.40;57.70;;;;;;6213860;28;20026;-72
2020/12/03 02:53:07;;;;;;;16.20;6.35;;;8.40;57.80;;;;;;6219135;28;20481;-71
2020/12/03 02:56:33;;;;;;;13.35;6.95;;;8.40;57.90;;;;;;6229983;28;20029;-72
2020/12/03 02:59:34;;;;;;;10.70;5.97;;;8.40;58.00;;;;;;6262699;28;20522;-72
2020/12/03 03:02:35;;;;;;;14.18;5.88;;;8.40;58.10;;;;;;6251863;28;20045;-72
2020/12/03 03:05:36;;;;;;;15.48;5.65;;;8.40;58.10;;;;;;6262058;28;20068;-71
2020/12/03 03:08:36;;;;;;;11.07;5.13;;;8.40;58.20;;;;;;6246837;28;20037;-71
2020/12/03 03:11:37;;;;;;;10.80;4.97;;;8.40;58.20;;;;;;6247208;28;20038;-72
2020/12/03 03:14:38;;;;;;;12.95;5.35;;;8.40;58.30;;;;;;6238666;28;20048;-73
2020/12/03 03:17:39;;;;;;;11.77;5.57;;;8.30;58.20;;;;;;6221475;28;20045;-73
2020/12/03 03:20:40;;;;;;;9.23;4.85;;;8.30;58.30;;;;;;6242511;28;20044;-71
2020/12/03 03:23:41;;;;;;;10.82;5.63;;;8.30;58.30;;;;;;6246718;28;20152;-71
2020/12/03 03:26:43;;;;;;;11.90;5.43;;;8.30;58.40;;;;;;6246696;28;20038;-71
2020/12/03 03:29:44;;;;;;;14.20;5.60;;;8.30;58.50;;;;;;6246271;28;20048;-72
2020/12/03 03:37:07;;;;;;;;;;;8.20;58.60;;;;;;6242759;28;20343;-72
2020/12/03 03:40:09;;;;;;;9.73;5.15;;;8.10;58.60;;;;;;6245322;28;19974;-72
2020/12/03 03:43:10;;;;;;;11.50;5.45;;;8.10;58.60;;;;;;6244198;28;20109;-72
2020/12/03 03:46:12;;;;;;;12.40;5.68;;;8.00;58.70;;;;;;6241394;28;20160;-73
2020/12/03 03:49:13;;;;;;;10.57;5.05;;;7.90;58.80;;;;;;6246275;28;20147;-72
2020/12/03 03:52:14;;;;;;;17.38;6.60;;;7.90;58.90;;;;;;6257210;28;20492;-72
2020/12/03 03:55:15;;;;;;;12.23;5.70;;;7.80;59.00;;;;;;6254111;28;20106;-72
2020/12/03 03:58:15;;;;;;;11.63;6.07;;;7.80;59.10;;;;;;6244687;28;20073;-72
2020/12/03 04:01:17;;;;;;;10.27;5.72;;;7.80;59.10;;;;;;6245722;28;20044;-72
2020/12/03 04:04:19;;;;;;;11.60;6.07;;;7.80;59.10;;;;;;6242326;28;20443;-72
2020/12/03 04:07:19;;;;;;;11.52;5.53;;;7.80;59.20;;;;;;6240567;28;20046;-72
2020/12/03 04:10:22;;;;;;;14.43;5.55;;;7.80;59.20;;;;;;6244160;28;20041;-73
2020/12/03 04:13:25;;;;;;;8.70;4.90;;;7.70;59.30;;;;;;6243061;28;20219;-73
2020/12/03 04:16:27;;;;;;;12.15;5.35;;;7.70;59.30;;;;;;6261071;28;20037;-73
2020/12/03 04:19:28;;;;;;;8.77;4.63;;;7.70;59.30;;;;;;6243093;28;20052;-74
2020/12/03 04:22:30;;;;;;;11.38;5.88;;;7.60;59.20;;;;;;6243574;28;20128;-72
2020/12/03 04:25:30;;;;;;;8.23;5.30;;;7.50;59.00;;;;;;6228532;28;20030;-72
2020/12/03 04:28:31;;;;;;;7.55;4.53;;;7.50;59.10;;;;;;6220045;28;20120;-72
2020/12/03 04:31:32;;;;;;;9.73;4.90;;;7.50;59.00;;;;;;6228693;28;20033;-72
2020/12/03 04:34:34;;;;;;;12.55;5.18;;;7.50;59.00;;;;;;6247765;28;20042;-71
2020/12/03 04:37:37;;;;;;;11.10;5.28;;;7.50;59.00;;;;;;6246670;28;20038;-74
2020/12/03 04:40:43;;;;;;;13.75;5.10;;;7.50;59.00;;;;;;6256844;28;20444;-73
2020/12/03 04:43:50;;;;;;;12.20;5.25;;;7.50;59.10;;;;;;6221907;28;20348;-71
2020/12/03 04:47:20;;;;;;;11.27;5.47;;;7.50;59.20;;;;;;6231973;28;20030;-73
2020/12/03 04:50:33;;;;;;;16.02;5.82;;;7.50;59.40;;;;;;6201945;28;20145;-72
2020/12/03 04:54:00;;;;;;;10.48;4.95;;;7.50;59.40;;;;;;6216924;28;20048;-72
2020/12/03 04:57:19;;;;;;;9.85;5.05;;;7.50;59.40;;;;;;6198926;28;20140;-72
2020/12/03 05:00:49;;;;;;;11.75;5.57;;;7.40;59.50;;;;;;6214671;28;20041;-72
2020/12/03 05:04:01;;;;;;;;;;;7.40;59.60;;;;;;6214658;28;20463;-72
2020/12/03 05:07:07;;;;;;;13.90;4.25;;;7.50;59.70;;;;;;6217565;28;19914;-71
2020/12/03 05:10:08;;;;;;;11.55;5.13;;;7.50;59.60;;;;;;6217785;28;20034;-71
2020/12/03 05:13:35;;;;;;;9.00;4.55;;;7.40;59.70;;;;;;6219802;28;20049;-71
2020/12/03 05:16:52;;;;;;;14.50;5.85;;;7.30;59.70;;;;;;6213437;28;20035;-73
2020/12/03 05:19:56;;;;;;;10.25;5.07;;;7.30;59.70;;;;;;6211062;28;20049;-72
2020/12/03 05:23:24;;;;;;;15.50;5.43;;;7.30;59.80;;;;;;6193297;28;20042;-72
2020/12/03 05:26:32;;;;;;;11.65;4.78;;;7.30;59.90;;;;;;6233552;28;20064;-72
2020/12/03 05:29:33;;;;;;;12.35;5.63;;;7.30;60.90;;;;;;6258359;28;20102;-72
2020/12/03 05:32:36;;;;;;;11.73;4.85;;;7.30;60.10;;;;;;6241158;28;20030;-73
2020/12/03 05:35:38;;;;;;;13.88;5.03;;;7.20;60.20;;;;;;6242523;28;20030;-72
2020/12/03 05:38:40;;;;;;;9.65;5.00;;;7.20;60.30;;;;;;6239284;28;20091;-72
2020/12/03 05:41:55;;;;;;;10.02;4.45;;;7.20;60.20;;;;;;6243766;28;20030;-73
2020/12/03 05:45:00;;;;;;;10.73;4.35;;;7.20;60.10;;;;;;6241611;28;20122;-73
2020/12/03 05:48:05;;;;;;;11.68;5.63;;;7.10;60.00;;;;;;6243413;28;20477;-72
2020/12/03 05:51:27;;;;;;;7.20;3.53;;;7.10;60.00;;;;;;6236886;28;20052;-73
2020/12/03 05:54:28;;;;;;;10.20;4.68;;;7.10;60.10;;;;;;6242418;28;20045;-73
2020/12/03 05:57:40;;;;;;;11.52;4.45;;;7.00;59.90;;;;;;6218198;28;20425;-72
2020/12/03 06:00:41;;;;;;;11.80;5.20;;;7.00;59.90;;;;;;6233670;28;20463;-72
2020/12/03 06:04:19;;;;;;;11.73;5.60;;;7.00;59.90;;;;;;6223726;28;20045;-72
2020/12/03 06:08:04;;;;;;;9.30;4.47;;;6.90;60.10;;;;;;6239052;28;20398;-72
2020/12/03 06:11:34;;;;;;;9.30;4.60;;;6.90;60.00;;;;;;6171440;28;20077;-71
2020/12/03 06:14:52;;;;;;;10.63;5.55;;;6.90;60.30;;;;;;6189983;28;22647;-72
2020/12/03 06:18:29;;;;;;;10.10;4.80;;;6.90;60.50;;;;;;6190201;28;20053;-72
2020/12/03 06:21:51;;;;;;;9.55;5.32;;;6.90;60.70;;;;;;6190676;28;20070;-74
2020/12/03 06:25:02;;;;;;;14.90;5.13;;;6.90;60.80;;;;;;6191806;28;20360;-72
2020/12/03 06:28:36;;;;;;;10.98;5.35;;;6.90;60.90;;;;;;6212983;28;20053;-73
2020/12/03 06:32:18;;;;;;;13.27;5.53;;;6.90;61.00;;;;;;6220287;28;20057;-72
2020/12/03 06:35:22;;;;;;;13.75;6.35;;;7.00;61.10;;;;;;6178743;28;20043;-72
2020/12/03 06:38:37;;;;;;;10.60;6.03;;;7.00;61.00;;;;;;6194824;28;20085;-71
2020/12/03 06:41:41;;;;;;;9.70;5.47;;;7.10;61.10;;;;;;6194265;28;20030;-72
2020/12/03 06:44:52;;;;;;;15.95;6.65;;;7.00;61.20;;;;;;6193611;28;20042;-73
2020/12/03 06:48:37;;;;;;;14.98;6.40;;;7.00;61.30;;;;;;6224098;28;20085;-72
2020/12/03 06:51:47;;;;;;;15.07;6.88;;;7.00;61.40;;;;;;6228034;28;20392;-74
2020/12/03 06:55:09;;;;;;;13.10;5.90;;;7.00;61.50;;;;;;6235903;28;20154;-72
2020/12/03 06:58:37;;;;;;;14.07;6.75;;;7.00;61.40;;;;;;6218557;28;20096;-73
2020/12/03 07:02:23;;;;;;;11.70;6.18;;;7.00;61.30;;;;;;6244603;28;20033;-73
2020/12/03 07:06:03;;;;;;;14.13;5.95;;;7.00;61.30;;;;;;6216678;28;20050;-73
2020/12/03 07:09:33;;;;;;;;;;;7.00;61.20;;;;;;6238983;28;20095;-72
2020/12/03 07:13:12;;;;;;;11.00;6.33;;;7.10;61.40;;;;;;6169126;28;19930;-72
2020/12/03 07:16:19;;;;;;;11.18;6.07;;;7.00;61.30;;;;;;6190436;28;20041;-72
2020/12/03 07:19:26;;;;;;;17.60;7.32;;;7.10;61.50;;;;;;6184775;28;20622;-72
2020/12/03 07:23:02;;;;;;;12.18;6.70;;;7.00;61.70;;;;;;6190193;28;20486;-72
2020/12/03 07:26:13;;;;;;;14.25;6.15;;;7.00;61.80;;;;;;6119947;29;20374;-72
2020/12/03 07:29:29;;;;;;;12.93;6.43;;;7.10;61.90;;;;;;6121347;29;20422;-73
2020/12/03 07:32:40;;;;;;;14.88;6.85;;;7.10;61.90;;;;;;6119059;29;20086;-73
2020/12/03 07:35:41;;;;;;;14.38;7.43;;;7.10;61.70;;;;;;6088870;29;20315;-73
2020/12/03 07:38:51;;;;;;;15.10;7.30;;;7.20;61.60;;;;;;6103587;29;20035;-73
2020/12/03 07:41:58;;;;;;;13.13;6.55;;;7.30;61.50;;;;;;6094444;29;20040;-73
2020/12/03 07:44:59;;;;;;;17.05;7.93;;;7.30;61.40;;;;;;6088585;29;20046;-73
2020/12/03 07:48:14;;;;;;;18.75;8.70;;;7.40;61.20;;;;;;6120180;28;20097;-73
2020/12/03 07:51:17;;;;;;;20.27;7.40;;;7.40;61.00;;;;;;6167457;28;20135;-73
2020/12/03 07:54:21;;;;;;;13.70;7.07;;;7.40;61.00;;;;;;6169446;28;20110;-73
2020/12/03 07:57:36;;;;;;;17.60;7.97;;;7.40;61.00;;;;;;6150804;28;20035;-73
2020/12/03 08:00:48;;;;;;;20.55;8.63;;;7.40;61.00;;;;;;6150266;28;20580;-73
2020/12/03 08:03:50;;;;;;;15.40;7.60;;;7.40;61.00;;;;;;6244034;28;20962;-73
2020/12/03 08:07:00;;;;;;;27.55;7.88;;;7.40;60.90;;;;;;6219926;28;20050;-75
2020/12/03 08:10:01;;;;;;;19.98;8.25;;;7.40;60.80;;;;;;6217480;28;20120;-71
2020/12/03 08:13:36;;;;;;;18.70;7.45;;;7.40;60.80;;;;;;6216773;28;20472;-72
2020/12/03 08:16:44;;;;;;;21.83;8.88;;;7.50;60.90;;;;;;6193900;28;20052;-72
2020/12/03 08:19:47;;;;;;;;;;;7.50;60.70;;;;;;6216302;28;20154;-72
2020/12/03 08:22:51;;;;;;;21.10;8.00;;;7.50;60.60;;;;;;6216824;28;19996;-73
2020/12/03 08:25:52;;;;;;;36.90;16.35;;;7.60;60.50;;;;;;6218020;28;20062;-73
2020/12/03 08:28:54;;;;;;;19.40;9.48;;;7.60;60.40;;;;;;6217831;28;20044;-73
2020/12/03 08:31:54;;;;;;;16.85;7.35;;;7.70;60.30;;;;;;6217882;28;20472;-71
2020/12/03 08:34:55;;;;;;;27.55;9.75;;;7.70;60.20;;;;;;6217210;28;20080;-72
2020/12/03 08:38:00;;;;;;;19.00;8.30;;;7.70;60.10;;;;;;6217197;28;20916;-73
2020/12/03 08:41:08;;;;;;;23.13;8.75;;;7.80;60.00;;;;;;6216732;28;20030;-72
2020/12/03 08:44:14;;;;;;;19.23;8.60;;;7.80;59.90;;;;;;6213923;28;20045;-73
2020/12/03 08:47:35;;;;;;;27.45;9.77;;;7.80;59.80;;;;;;6200243;28;20095;-73
2020/12/03 08:50:37;;;;;;;26.55;9.25;;;8.00;59.80;;;;;;6215985;28;20042;-74
2020/12/03 08:53:47;;;;;;;21.88;10.10;;;8.10;59.50;;;;;;6225950;28;20037;-75
2020/12/03 08:56:56;;;;;;;17.15;8.48;;;8.20;59.40;;;;;;6225687;28;20041;-73
2020/12/03 09:00:00;;;;;;;20.50;8.50;;;8.30;59.10;;;;;;6222805;28;20030;-74
2020/12/03 09:03:02;;;;;;;18.15;8.82;;;8.30;58.90;;;;;;6242210;28;20052;-73
2020/12/03 09:06:03;;;;;;;25.38;8.57;;;8.30;58.70;;;;;;6242011;28;20116;-73
2020/12/03 09:09:04;;;;;;;16.30;8.05;;;8.30;58.70;;;;;;6244097;28;20040;-73
2020/12/03 09:12:09;;;;;;;22.70;10.30;;;8.40;58.60;;;;;;6238691;28;20041;-72
2020/12/03 09:15:11;;;;;;;24.60;9.55;;;8.40;58.50;;;;;;6236040;28;20037;-73
2020/12/03 09:18:12;;;;;;;23.15;10.15;;;8.50;58.40;;;;;;6254685;28;20029;-72
2020/12/03 09:21:14;;;;;;;20.92;9.32;;;8.50;58.30;;;;;;6223242;28;20053;-73
2020/12/03 09:24:20;;;;;;;19.02;9.13;;;8.60;58.20;;;;;;6244732;28;20120;-72
2020/12/03 09:27:22;;;;;;;21.02;9.55;;;8.70;58.00;;;;;;6223315;28;20064;-73
2020/12/03 09:30:26;;;;;;;23.58;9.52;;;8.70;58.00;;;;;;6218733;28;20475;-73
2020/12/03 09:33:27;;;;;;;23.52;9.05;;;8.80;57.90;;;;;;6217139;28;20045;-72
2020/12/03 09:36:28;;;;;;;26.75;10.73;;;8.80;57.70;;;;;;6216696;28;20134;-73
2020/12/03 09:39:32;;;;;;;25.00;10.43;;;8.90;57.60;;;;;;6239450;28;20125;-74
2020/12/03 09:42:43;;;;;;;20.83;8.90;;;9.00;57.50;;;;;;6213939;28;20029;-72
2020/12/03 09:45:48;;;;;;;24.25;10.77;;;9.00;57.10;;;;;;6199021;28;20053;-73
2020/12/03 09:48:51;;;;;;;45.47;18.60;;;9.10;56.80;;;;;;6217160;28;20022;-73
2020/12/03 09:51:53;;;;;;;25.77;10.88;;;9.10;57.00;;;;;;6211941;28;20064;-73
2020/12/03 09:54:55;;;;;;;20.63;10.25;;;9.30;57.00;;;;;;6236950;28;20467;-72
2020/12/03 09:57:58;;;;;;;25.52;11.48;;;9.50;57.00;;;;;;6212905;28;20033;-73
2020/12/03 10:01:06;;;;;;;25.30;11.68;;;9.70;56.30;;;;;;6223943;28;20049;-72
2020/12/03 10:05:13;;;;;;;23.90;10.98;;;9.90;55.80;;;;;;6216204;28;20048;-73
2020/12/03 10:08:23;;;;;;;23.00;9.02;;;10.10;55.20;;;;;;6153513;28;20043;-72
2020/12/03 10:11:39;;;;;;;17.05;8.77;;;10.20;54.70;;;;;;6154649;28;20073;-73
2020/12/03 10:15:12;;;;;;;19.00;8.38;;;10.40;53.80;;;;;;6154127;28;20042;-72
2020/12/03 10:18:22;;;;;;;22.92;9.07;;;10.50;53.10;;;;;;6106340;29;20039;-72
2020/12/03 10:21:25;;;;;;;20.90;8.63;;;10.70;52.70;;;;;;6110802;29;20063;-73
2020/12/03 10:24:53;;;;;;;24.88;11.73;;;10.80;52.30;;;;;;6104719;29;20465;-73
2020/12/03 10:27:59;;;;;;;25.80;11.48;;;10.80;51.50;;;;;;6121829;29;20349;-73
2020/12/03 10:31:01;;;;;;;17.90;8.68;;;11.00;51.30;;;;;;6086581;29;20051;-72
2020/12/03 10:34:04;;;;;;;18.38;8.55;;;11.10;51.40;;;;;;6105849;29;20098;-72
2020/12/03 10:37:16;;;;;;;15.38;7.40;;;11.30;50.60;;;;;;6078209;29;20063;-74
2020/12/03 10:40:19;;;;;;;23.50;11.43;;;11.50;49.70;;;;;;6124851;29;20473;-72
2020/12/03 10:43:29;;;;;;;24.55;10.30;;;11.60;49.10;;;;;;6138757;28;20043;-73
2020/12/03 10:46:37;;;;;;;18.88;9.15;;;11.80;49.00;;;;;;6122110;28;20043;-73
2020/12/03 10:49:41;;;;;;;34.33;14.27;;;12.00;49.30;;;;;;6122261;28;20053;-72
2020/12/03 10:52:44;;;;;;;22.63;10.13;;;12.30;48.60;;;;;;6158431;28;20036;-72
2020/12/03 10:55:54;;;;;;;25.67;11.48;;;12.70;47.80;;;;;;6234765;28;20040;-72
2020/12/03 10:59:32;;;;;;;23.25;10.65;;;12.90;47.20;;;;;;6247336;28;20086;-73
2020/12/03 11:02:42;;;;;;;16.02;8.52;;;13.10;46.40;;;;;;6246535;28;20034;-73
2020/12/03 11:05:46;;;;;;;24.83;10.00;;;13.50;46.20;;;;;;6277909;28;20064;-73
2020/12/03 11:08:48;;;;;;;17.38;7.95;;;13.90;45.40;;;;;;6228210;28;20025;-73
2020/12/03 11:11:50;;;;;;;17.67;9.20;;;14.20;43.10;;;;;;6274216;28;20022;-73
2020/12/03 11:14:51;;;;;;;17.00;7.32;;;14.30;43.00;;;;;;6245520;28;20109;-73
2020/12/03 11:18:15;;;;;;;10.77;6.70;;;14.50;42.40;;;;;;6229474;28;20033;-74
2020/12/03 11:21:30;;;;;;;12.48;6.75;;;14.60;42.20;;;;;;6232844;28;20863;-74
2020/12/03 11:24:44;;;;;;;15.25;6.60;;;14.90;41.70;;;;;;6201550;28;20041;-74
2020/12/03 11:27:48;;;;;;;13.02;6.25;;;15.20;41.00;;;;;;6213360;28;20124;-73
2020/12/03 11:30:55;;;;;;;15.63;6.60;;;15.40;40.10;;;;;;6213141;28;20048;-73
2020/12/03 11:33:56;;;;;;;16.05;7.07;;;15.80;39.40;;;;;;6232575;28;20041;-73
2020/12/03 11:36:58;;;;;;;14.02;5.82;;;16.20;38.50;;;;;;6219184;28;20037;-73
2020/12/03 11:40:07;;;;;;;11.60;6.20;;;16.20;38.30;;;;;;6234710;28;20038;-73
2020/12/03 11:43:29;;;;;;;11.90;6.15;;;15.90;38.60;;;;;;6233361;28;20077;-73
2020/12/03 11:49:51;;;;;;;19.23;8.35;;;15.20;39.50;;;;;;6223412;28;20120;-74
2020/12/03 11:53:00;;;;;;;31.35;10.82;;;14.80;40.10;;;;;;6217440;28;20040;-73
2020/12/03 11:56:01;;;;;;;15.80;8.50;;;14.40;39.90;;;;;;6219726;28;20220;-73
2020/12/03 11:59:28;;;;;;;10.45;6.03;;;14.10;40.20;;;;;;6219018;28;20038;-72
2020/12/03 12:02:30;;;;;;;8.77;4.57;;;13.70;41.00;;;;;;6233438;28;20089;-74
2020/12/03 12:09:06;;;;;;;11.13;5.90;;;13.20;41.10;;;;;;6217984;28;20435;-72
2020/12/03 12:12:18;;;;;;;15.57;7.53;;;12.90;41.60;;;;;;6255940;28;20033;-73
2020/12/03 12:15:20;;;;;;;8.45;4.25;;;12.80;41.90;;;;;;6252568;28;20505;-73
2020/12/03 12:18:25;;;;;;;5.93;3.70;;;12.60;42.10;;;;;;6220090;28;20045;-74
2020/12/03 12:21:38;;;;;;;8.25;4.60;;;12.50;42.10;;;;;;6241223;28;20095;-74
2020/12/03 12:24:51;;;;;;;8.48;3.90;;;12.40;42.00;;;;;;6209043;28;20037;-75
2020/12/03 12:27:58;;;;;;;9.30;4.40;;;12.30;41.90;;;;;;6188315;28;20040;-74
2020/12/03 12:31:02;;;;;;;16.25;7.05;;;12.30;41.90;;;;;;6251185;28;20033;-74
2020/12/03 12:34:15;;;;;;;8.75;4.47;;;12.30;42.00;;;;;;6197918;28;20052;-73
2020/12/03 12:37:21;;;;;;;8.02;4.20;;;12.30;41.90;;;;;;6228943;28;21377;-75
2020/12/03 12:40:36;;;;;;;10.82;4.20;;;12.40;41.70;;;;;;6209923;28;20179;-75
2020/12/03 12:43:37;;;;;;;9.80;4.72;;;12.40;41.60;;;;;;6217854;28;20463;-73
2020/12/03 12:46:38;;;;;;;8.88;3.60;;;12.40;42.00;;;;;;6205092;28;20041;-74
2020/12/03 12:49:39;;;;;;;7.85;3.95;;;12.30;40.80;;;;;;6212827;28;20645;-73
2020/12/03 12:52:40;;;;;;;5.55;2.95;;;12.20;40.80;;;;;;6257754;28;20320;-74
2020/12/03 12:55:53;;;;;;;6.65;3.45;;;12.20;41.00;;;;;;6205956;28;20045;-75
2020/12/03 12:58:55;;;;;;;7.68;3.72;;;12.20;41.30;;;;;;6185533;28;20030;-74
2020/12/03 13:01:59;;;;;;;8.05;3.45;;;12.20;41.40;;;;;;6191329;28;20049;-73
2020/12/03 13:05:00;;;;;;;8.23;3.92;;;12.20;41.60;;;;;;6236424;28;20077;-72
2020/12/03 13:08:01;;;;;;;7.53;3.15;;;12.20;42.30;;;;;;6241453;28;20051;-73
2020/12/03 13:11:01;;;;;;;6.50;3.47;;;12.20;41.70;;;;;;6245189;28;20030;-73
2020/12/03 13:14:10;;;;;;;7.25;3.40;;;12.20;42.30;;;;;;6239983;28;20025;-74
2020/12/03 13:17:11;;;;;;;8.48;3.60;;;12.20;41.70;;;;;;6227053;28;20026;-72
2020/12/03 13:20:12;;;;;;;6.10;3.45;;;12.20;41.30;;;;;;6234117;28;20053;-72
2020/12/03 13:23:13;;;;;;;6.32;3.30;;;12.20;41.50;;;;;;6240441;28;20436;-74
2020/12/03 13:26:17;;;;;;;4.75;2.67;;;12.20;41.10;;;;;;6235966;28;20435;-72
2020/12/03 13:29:19;;;;;;;5.88;3.05;;;12.20;41.10;;;;;;6239447;28;20167;-73
2020/12/03 13:32:24;;;;;;;6.72;3.35;;;12.20;40.90;;;;;;6239902;28;20030;-73
2020/12/03 13:39:42;;;;;;;6.03;3.17;;;12.20;41.00;;;;;;6237785;28;20041;-73
2020/12/03 13:42:43;;;;;;;6.65;3.45;;;12.20;41.10;;;;;;6234245;28;20029;-75
2020/12/03 13:45:46;;;;;;;12.07;2.95;;;12.20;41.20;;;;;;6207429;28;20379;-73
2020/12/03 13:48:47;;;;;;;5.82;3.00;;;12.20;41.30;;;;;;6229155;28;20079;-74
2020/12/03 13:51:48;;;;;;;4.13;2.70;;;12.30;41.30;;;;;;6256688;28;20037;-74
2020/12/03 13:54:48;;;;;;;6.40;3.13;;;12.40;41.10;;;;;;6241801;28;20029;-73
2020/12/03 13:57:50;;;;;;;8.20;2.47;;;12.50;40.80;;;;;;6243887;28;20029;-73
2020/12/03 14:00:52;;;;;;;4.70;2.50;;;12.50;40.60;;;;;;6239203;28;20046;-73
2020/12/03 14:03:53;;;;;;;6.45;2.75;;;12.60;40.30;;;;;;6255661;28;20049;-73
2020/12/03 14:06:54;;;;;;;4.63;2.63;;;12.70;40.30;;;;;;6252543;28;20033;-72
2020/12/03 14:09:55;;;;;;;6.63;2.72;;;12.70;40.10;;;;;;6257840;28;20050;-74
2020/12/03 14:12:56;;;;;;;7.18;3.53;;;12.80;40.20;;;;;;6228821;28;20037;-73
2020/12/03 14:15:57;;;;;;;6.70;3.10;;;12.80;39.80;;;;;;6233422;28;20362;-73
2020/12/03 14:18:58;;;;;;;12.98;3.10;;;12.80;40.00;;;;;;6215009;28;20125;-74
2020/12/03 14:21:59;;;;;;;8.35;3.35;;;12.90;40.10;;;;;;6226359;28;20041;-73
2020/12/03 14:25:00;;;;;;;6.07;3.13;;;12.90;40.20;;;;;;6223830;28;20042;-73
2020/12/03 14:28:01;;;;;;;4.18;2.38;;;12.90;40.20;;;;;;6217464;28;20509;-72
2020/12/03 14:31:03;;;;;;;5.15;3.05;;;13.00;40.00;;;;;;6214850;28;20033;-73
2020/12/03 14:34:04;;;;;;;6.00;3.05;;;13.00;39.70;;;;;;6217218;28;20448;-72
2020/12/03 14:37:04;;;;;;;9.02;4.10;;;13.00;39.60;;;;;;6215181;28;20103;-74
2020/12/03 14:40:08;;;;;;;6.78;3.97;;;13.00;39.60;;;;;;6217530;28;20030;-73
2020/12/03 14:43:09;;;;;;;9.45;4.47;;;12.90;39.90;;;;;;6231846;28;20044;-73
2020/12/03 14:46:10;;;;;;;11.90;4.03;;;12.80;40.20;;;;;;6217781;28;20030;-72
2020/12/03 14:49:16;;;;;;;12.77;3.60;;;12.80;40.50;;;;;;6239768;28;20428;-74
2020/12/03 14:52:17;;;;;;;6.97;3.47;;;12.80;40.60;;;;;;6259899;28;20040;-73
2020/12/03 14:55:19;;;;;;;6.10;3.38;;;12.70;40.60;;;;;;6261587;28;20053;-73
2020/12/03 14:58:24;;;;;;;7.32;3.40;;;12.70;40.80;;;;;;6245661;28;20034;-72
2020/12/03 15:01:26;;;;;;;6.90;3.50;;;12.70;40.90;;;;;;6261956;28;20443;-72
2020/12/03 15:04:27;;;;;;;8.88;3.25;;;12.60;41.00;;;;;;6227091;28;20038;-73
2020/12/03 15:07:28;;;;;;;7.57;4.10;;;12.50;41.10;;;;;;6243855;28;20421;-74
2020/12/03 15:10:31;;;;;;;12.70;5.00;;;12.40;40.90;;;;;;6244481;28;20083;-74
2020/12/03 15:13:32;;;;;;;12.70;6.85;;;12.30;41.20;;;;;;6258482;28;20059;-72
2020/12/03 15:16:33;;;;;;;15.70;6.90;;;12.30;41.50;;;;;;6257012;28;20114;-72
2020/12/03 15:19:34;;;;;;;6.97;4.38;;;12.20;41.60;;;;;;6245638;28;20377;-73
2020/12/03 15:22:35;;;;;;;11.75;4.72;;;12.20;41.70;;;;;;6259356;28;20037;-73
2020/12/03 15:29:52;;;;;;;9.40;3.80;;;12.10;42.00;;;;;;6223760;28;20137;-72
2020/12/03 15:32:54;;;;;;;10.85;3.40;;;11.90;42.10;;;;;;6238996;28;20130;-72
2020/12/03 15:35:55;;;;;;;6.40;3.47;;;11.90;42.40;;;;;;6237990;28;20108;-73
2020/12/03 15:38:56;;;;;;;6.88;4.03;;;11.80;42.60;;;;;;6242617;28;20117;-74
2020/12/03 15:42:01;;;;;;;6.13;3.10;;;11.80;42.70;;;;;;6243763;28;20049;-73
2020/12/03 15:45:07;;;;;;;7.85;3.55;;;11.80;42.80;;;;;;6240262;28;20113;-73
2020/12/03 15:48:40;;;;;;;7.90;3.72;;;11.70;42.80;;;;;;6191710;28;20036;-74
2020/12/03 15:51:44;;;;;;;19.52;7.70;;;11.70;43.00;;;;;;6227132;28;20029;-74
2020/12/03 15:54:47;;;;;;;10.73;3.60;;;11.70;43.10;;;;;;6227105;28;20474;-72
2020/12/03 15:57:59;;;;;;;8.40;3.53;;;11.50;43.10;;;;;;6256173;28;20060;-74
2020/12/03 16:01:20;;;;;;;8.40;3.47;;;11.50;43.20;;;;;;6228721;28;20048;-73
2020/12/03 16:04:22;;;;;;;9.55;4.20;;;11.50;43.10;;;;;;6208323;28;20041;-72
2020/12/03 16:07:22;;;;;;;6.25;3.42;;;11.50;43.20;;;;;;6244645;28;20056;-72
2020/12/03 16:10:24;;;;;;;4.63;3.60;;;11.40;43.10;;;;;;6239482;28;20029;-72
2020/12/03 16:13:25;;;;;;;5.82;3.40;;;11.50;43.10;;;;;;6242014;28;20382;-73
2020/12/03 16:16:27;;;;;;;6.75;3.55;;;11.40;43.10;;;;;;6273698;28;20208;-73
2020/12/03 16:19:28;;;;;;;9.90;3.75;;;11.40;43.20;;;;;;6235890;28;20026;-71
2020/12/03 16:22:29;;;;;;;13.25;4.80;;;11.40;43.30;;;;;;6242067;28;20045;-72
2020/12/03 16:25:30;;;;;;;13.18;4.22;;;11.40;43.50;;;;;;6258742;28;20131;-73
2020/12/03 16:28:32;;;;;;;19.27;8.90;;;11.40;43.60;;;;;;6244547;28;20041;-73
2020/12/03 16:31:35;;;;;;;14.25;5.65;;;11.30;43.70;;;;;;6270383;28;20037;-72